Date,TemperatureHighF,TemperatureAvgF,TemperatureLowF,DewpointHighF,DewpointAvgF,DewpointLowF,HumidityHigh,HumidityAvg,HumidityLow,PressureMaxIn,PressureMinIn,WindSpeedMaxMPH,WindSpeedAvgMPH,GustSpeedMaxMPH,PrecipitationSumIn
2013-1-1,42.6,38.3,34.5,-99.9,-99.9,-99.9,0,0,100,0.00,40.00,13,10,0,0.00
2013-1-2,51.6,48.1,40.6,-99.9,-99.9,-99.9,0,0,100,0.00,40.00,17,11,0,0.00
2013-1-3,52.0,50.7,49.3,-99.9,-99.9,-99.9,0,0,100,0.00,40.00,14,9,0,0.00
2013-1-4,49.5,48.3,44.4,-99.9,-99.9,-99.9,0,0,100,0.00,40.00,17,10,0,0.00
2013-1-5,51.1,48.8,45.9,-99.9,-99.9,-99.9,0,0,100,0.00,40.00,17,10,0,0.00
2013-1-6,49.5,47.5,43.9,-99.9,-99.9,-99.9,0,0,100,0.00,40.00,15,10,0,0.00
2013-1-7,50.7,49.2,46.6,-99.9,-99.9,-99.9,0,0,100,0.00,40.00,19,11,0,0.00
2013-1-8,51.6,46.4,37.8,-99.9,-99.9,-99.9,0,0,100,0.00,40.00,17,7,0,0.00
2013-1-9,42.4,35.8,31.6,-99.9,-99.9,-99.9,0,0,100,0.00,40.00,7,4,0,0.00
2013-1-10,42.3,36.9,31.8,-99.9,-99.9,-99.9,0,0,100,0.00,40.00,8,4,0,0.00
2013-1-11,43.2,37.8,32.4,-99.9,-99.9,-99.9,0,0,100,0.00,40.00,8,4,0,0.00
2013-1-12,42.6,39.8,34.7,-99.9,-99.9,-99.9,0,0,100,0.00,40.00,10,6,0,0.00
2013-1-13,36.7,33.9,30.0,-99.9,-99.9,-99.9,0,0,100,0.00,40.00,10,5,0,0.00
2013-1-14,41.0,37.4,33.6,-99.9,-99.9,-99.9,0,0,100,0.00,40.00,20,9,0,0.00
2013-1-15,36.9,33.3,30.0,-99.9,-99.9,-99.9,0,0,100,0.00,40.00,9,5,0,0.00
2013-1-16,39.6,37.7,35.8,-99.9,-99.9,-99.9,0,0,100,0.00,40.00,6,3,0,0.00
2013-1-17,44.6,41.8,39.6,-99.9,-99.9,-99.9,0,0,100,0.00,40.00,11,4,0,0.00
2013-1-18,40.6,35.7,33.1,-99.9,-99.9,-99.9,0,0,100,0.00,40.00,13,8,0,0.00
2013-1-19,37.8,34.8,33.1,-99.9,-99.9,-99.9,0,0,100,0.00,40.00,7,4,0,0.00
2013-1-20,35.4,34.5,32.9,-99.9,-99.9,-99.9,0,0,100,0.00,40.00,10,5,0,0.00
2013-1-21,35.2,33.2,30.7,-99.9,-99.9,-99.9,0,0,100,0.00,40.00,10,4,0,0.00
2013-1-22,34.0,30.7,25.5,-99.9,-99.9,-99.9,0,0,100,0.00,40.00,7,3,0,0.00
2013-1-23,37.2,34.5,32.0,-99.9,-99.9,-99.9,0,0,100,0.00,40.00,9,4,0,0.00
2013-1-24,39.6,36.7,34.0,-99.9,-99.9,-99.9,0,0,100,0.00,40.00,112,6,0,0.00
2013-1-25,45.7,42.3,39.0,-99.9,-99.9,-99.9,0,0,100,0.00,40.00,69,6,0,0.00
2013-1-26,51.4,42.1,34.2,-99.9,-99.9,-99.9,0,0,100,0.00,40.00,3,2,0,0.00
2013-1-27,51.1,38.8,34.0,-99.9,-99.9,-99.9,0,0,100,0.00,40.00,114,17,0,0.00
2013-1-28,50.2,41.7,34.0,-99.9,-99.9,-99.9,0,0,100,0.00,40.00,89,8,0,0.00
2013-1-29,54.7,46.0,41.2,-99.9,-99.9,-99.9,0,0,100,0.00,40.00,118,15,0,0.00
2013-1-30,44.6,42.0,38.8,-99.9,-99.9,-99.9,0,0,100,0.00,40.00,25,14,0,0.00
2013-1-31,46.8,42.3,39.2,-99.9,-99.9,-99.9,0,0,100,0.00,40.00,131,26,0,0.00
2013-2-1,43.2,39.0,34.7,-99.9,-99.9,-99.9,0,0,100,0.00,40.00,152,22,0,0.00
2013-2-2,41.7,36.3,31.8,-99.9,-99.9,-99.9,0,0,100,0.00,40.00,111,14,0,0.00
2013-2-3,49.3,45.7,37.8,-99.9,-99.9,-99.9,0,0,100,0.00,40.00,19,13,0,0.00
2013-2-4,48.6,41.1,32.7,-99.9,-99.9,-99.9,0,0,100,0.00,40.00,20,15,0,0.00
2013-2-5,43.2,36.4,30.9,-99.9,-99.9,-99.9,0,0,100,0.00,40.00,23,15,0,0.00
2013-2-6,41.7,37.3,32.4,-99.9,-99.9,-99.9,0,0,100,0.00,40.00,23,14,0,0.00
2013-2-7,43.2,35.4,32.2,-99.9,-99.9,-99.9,0,0,100,0.00,40.00,24,8,0,0.00
2013-2-8,45.0,40.1,37.0,-99.9,-99.9,-99.9,0,0,100,0.00,40.00,13,7,0,0.00
2013-2-9,47.7,43.1,39.9,-99.9,-99.9,-99.9,0,0,100,0.00,40.00,10,6,0,0.00
2013-2-10,43.5,41.3,38.7,-99.9,-99.9,-99.9,0,0,100,0.00,40.00,18,7,0,0.00
2013-2-11,39.6,37.3,36.3,-99.9,-99.9,-99.9,0,0,100,0.00,40.00,10,7,0,0.00
2013-2-12,40.6,37.8,35.4,-99.9,-99.9,-99.9,0,0,100,0.00,40.00,7,4,0,0.00
2013-2-13,50.5,45.0,39.4,-99.9,-99.9,-99.9,0,0,100,0.00,40.00,18,11,0,0.00
2013-2-14,46.9,42.6,38.5,-99.9,-99.9,-99.9,0,0,100,0.00,40.00,14,9,0,0.00
2013-2-15,39.6,38.1,33.1,-99.9,-99.9,-99.9,0,0,100,0.00,40.00,8,4,0,0.00
2013-2-16,39.6,23.8,39.6,-99.9,-99.9,-99.9,0,0,100,0.00,40.00,16,4,0,0.00
2013-2-17,185.0,12.8,38.3,-99.9,-99.9,-99.9,0,0,100,0.00,40.00,13,7,0,0.00
2013-2-18,44.1,13.7,36.7,-99.9,-99.9,-99.9,0,0,100,0.00,40.00,10,5,0,0.00
2013-2-19,185.0,0.4,42.3,-99.9,-99.9,-99.9,0,0,100,0.00,40.00,10,5,0,0.00
2013-2-26,40.1,17.2,40.1,-99.9,-99.9,-99.9,0,0,100,0.00,40.00,5,4,0,0.00
2013-2-27,185.0,0.0,185.0,-99.9,-99.9,-99.9,0,0,100,0.00,40.00,9,6,0,0.00
2013-2-28,185.0,0.0,185.0,-99.9,-99.9,-99.9,0,0,100,0.00,40.00,10,6,0,0.00
2013-3-1,185.0,17.3,35.2,-99.9,-99.9,-99.9,0,0,100,0.00,40.00,9,5,0,0.00
2013-3-2,185.0,8.1,39.6,-99.9,-99.9,-99.9,0,0,100,0.00,40.00,7,4,0,0.00
2013-3-3,185.0,10.3,36.9,-99.9,-99.9,-99.9,0,0,100,0.00,40.00,8,3,0,0.00
2013-3-4,185.0,12.9,38.8,-99.9,-99.9,-99.9,0,0,100,0.00,40.00,7,3,0,0.00
2013-3-5,185.0,6.9,41.7,-99.9,-99.9,-99.9,0,0,100,0.00,40.00,10,6,0,0.00
2013-3-6,185.0,0.0,185.0,-99.9,-99.9,-99.9,0,0,100,0.00,40.00,10,7,0,0.00
2013-3-7,185.0,0.0,185.0,-99.9,-99.9,-99.9,0,0,100,0.00,40.00,12,8,0,0.00
2013-3-8,185.0,1.2,45.7,-99.9,-99.9,-99.9,0,0,100,0.00,40.00,11,7,0,0.00
2013-3-9,185.0,6.2,36.5,-99.9,-99.9,-99.9,0,0,100,0.00,40.00,13,9,0,0.00
2013-3-10,39.4,35.8,32.7,-99.9,-99.9,-99.9,0,0,100,0.00,40.00,18,14,0,0.00
2013-3-11,34.5,27.1,26.4,-99.9,-99.9,-99.9,0,0,100,0.00,40.00,21,13,0,0.00
2013-3-12,37.8,32.9,25.9,-99.9,-99.9,-99.9,0,0,100,0.00,40.00,15,9,0,0.00
2013-3-13,43.5,28.6,29.7,-99.9,-99.9,-99.9,0,0,100,0.00,40.00,16,9,0,0.00
2013-3-14,185.0,5.0,27.0,-99.9,-99.9,-99.9,0,0,100,0.00,40.00,14,8,0,0.00
2013-3-15,185.0,21.0,34.0,-99.9,-99.9,-99.9,0,0,100,0.00,40.00,17,10,0,0.00
2013-3-16,44.6,36.0,28.8,-99.9,-99.9,-99.9,0,0,100,0.00,40.00,18,6,0,0.00
2013-3-17,39.7,35.0,32.2,-99.9,-99.9,-99.9,0,0,100,0.00,40.00,10,6,0,0.00
2013-3-18,42.6,36.6,32.4,-99.9,-99.9,-99.9,0,0,100,0.00,40.00,14,8,0,0.00
2013-3-19,37.2,34.2,31.8,-99.9,-99.9,-99.9,0,0,100,0.00,40.00,16,8,0,0.00
2013-3-20,43.2,36.6,31.6,-99.9,-99.9,-99.9,0,0,100,0.00,40.00,12,5,0,0.00
2013-3-21,40.5,38.6,37.4,-99.9,-99.9,-99.9,0,0,100,0.00,40.00,22,12,0,0.00
2013-3-22,40.1,38.9,36.3,-99.9,-99.9,-99.9,0,0,100,0.00,40.00,18,12,0,0.00
2013-3-23,36.9,35.9,34.2,-99.9,-99.9,-99.9,0,0,100,0.00,40.00,13,10,0,0.00
2013-3-24,35.2,34.0,33.3,-99.9,-99.9,-99.9,0,0,100,0.00,40.00,16,13,0,0.00
2013-3-25,38.3,35.1,33.3,-99.9,-99.9,-99.9,0,0,100,0.00,40.00,17,12,0,0.00
2013-3-26,36.5,33.8,31.1,-99.9,-99.9,-99.9,0,0,100,0.00,40.00,15,9,0,0.00
2013-3-27,37.8,33.2,30.7,-99.9,-99.9,-99.9,0,0,100,0.00,40.00,13,8,0,0.00
2013-3-28,39.0,34.7,30.4,-99.9,-99.9,-99.9,0,0,100,0.00,40.00,13,7,0,0.00
2013-3-29,37.8,35.3,32.7,-99.9,-99.9,-99.9,0,0,100,0.00,40.00,13,8,0,0.00
2013-3-30,40.5,36.1,30.9,-99.9,-99.9,-99.9,0,0,100,0.00,40.00,11,6,0,0.00
2013-3-31,39.9,36.8,33.6,-99.9,-99.9,-99.9,0,0,100,0.00,40.00,9,6,0,0.00
2013-4-1,38.5,35.9,34.2,-99.9,-99.9,-99.9,0,0,100,0.00,40.00,14,9,0,0.00
2013-4-2,43.2,36.7,30.4,-99.9,-99.9,-99.9,0,0,100,0.00,40.00,13,8,0,0.00
2013-4-3,43.3,37.3,32.0,-99.9,-99.9,-99.9,0,0,100,0.00,40.00,13,8,0,0.00
2013-4-4,42.3,36.7,30.4,-99.9,-99.9,-99.9,0,0,100,0.00,40.00,16,10,0,0.00
2013-4-5,42.6,36.7,30.7,-99.9,-99.9,-99.9,0,0,100,0.00,40.00,18,8,0,0.00
2013-4-6,49.3,38.0,27.0,-99.9,-99.9,-99.9,0,0,100,0.00,40.00,9,4,0,0.00
2013-4-7,46.0,38.9,32.5,-99.9,-99.9,-99.9,0,0,100,0.00,40.00,10,5,0,0.00
2013-4-8,45.1,40.8,35.4,-99.9,-99.9,-99.9,0,0,100,0.00,40.00,16,10,0,0.00
2013-4-9,43.0,38.5,35.4,-99.9,-99.9,-99.9,0,0,100,0.00,40.00,15,9,0,0.00
2013-4-10,47.8,40.9,35.4,-99.9,-99.9,-99.9,0,0,100,0.00,40.00,10,6,0,0.00
2013-4-11,48.0,43.0,40.5,-99.9,-99.9,-99.9,0,0,100,0.00,40.00,8,4,0,0.00
2013-4-12,50.4,43.6,38.5,-99.9,-99.9,-99.9,0,0,100,0.00,40.00,12,6,0,0.00
2013-4-13,53.6,45.4,38.5,-99.9,-99.9,-99.9,0,0,100,0.00,40.00,23,7,0,0.00
2013-4-14,56.5,52.0,47.3,-99.9,-99.9,-99.9,0,0,100,0.00,40.00,31,21,0,0.00
2013-4-15,59.4,51.2,48.2,-99.9,-99.9,-99.9,0,0,100,0.00,40.00,24,16,0,0.00
2013-4-16,55.0,49.9,44.1,-99.9,-99.9,-99.9,0,0,100,0.00,40.00,27,16,0,0.00
2013-4-17,55.9,49.9,43.7,-99.9,-99.9,-99.9,0,0,100,0.00,40.00,30,18,0,0.00
2013-4-18,50.5,45.5,41.4,-99.9,-99.9,-99.9,0,0,100,0.00,40.00,28,15,0,0.00
2013-4-19,55.8,45.7,37.2,-99.9,-99.9,-99.9,0,0,100,0.00,40.00,11,6,0,0.00
2013-4-20,55.6,47.2,39.0,-99.9,-99.9,-99.9,0,0,100,0.00,40.00,16,10,0,0.00
2013-4-21,53.2,46.5,42.3,-99.9,-99.9,-99.9,0,0,100,0.00,40.00,20,10,0,0.00
2013-4-22,57.9,48.8,41.7,-99.9,-99.9,-99.9,0,0,100,0.00,40.00,19,12,0,0.00
2013-4-23,61.0,52.6,45.9,-99.9,-99.9,-99.9,0,0,100,0.00,40.00,14,9,0,0.00
2013-4-24,54.3,50.8,43.9,-99.9,-99.9,-99.9,0,0,100,0.00,40.00,17,9,0,0.00
2013-4-25,52.0,45.3,41.7,-99.9,-99.9,-99.9,0,0,100,0.00,40.00,18,7,0,0.00
2013-4-26,47.5,41.5,34.9,-99.9,-99.9,-99.9,0,0,100,0.00,40.00,23,12,0,0.00
2013-4-27,52.2,44.3,37.0,-99.9,-99.9,-99.9,0,0,100,0.00,40.00,16,10,0,0.00
2013-4-28,52.2,45.2,39.4,-99.9,-99.9,-99.9,0,0,100,0.00,40.00,18,11,0,0.00
2013-4-29,52.7,44.4,37.9,-99.9,-99.9,-99.9,0,0,100,0.00,40.00,18,11,0,0.00
2013-4-30,55.0,45.2,35.1,-99.9,-99.9,-99.9,0,0,100,0.00,40.00,9,5,0,0.00
2013-5-1,56.1,47.5,38.8,-99.9,-99.9,-99.9,0,0,100,0.00,40.00,13,8,0,0.00
2013-5-2,58.6,49.4,39.4,-99.9,-99.9,-99.9,0,0,100,0.00,40.00,14,7,0,0.00
2013-5-3,56.5,51.5,47.7,-99.9,-99.9,-99.9,0,0,100,0.00,40.00,19,12,0,0.00
2013-5-4,57.9,50.0,43.5,-99.9,-99.9,-99.9,0,0,100,0.00,40.00,16,11,0,0.00
2013-5-5,61.7,55.2,50.4,-99.9,-99.9,-99.9,0,0,100,0.00,40.00,16,11,0,0.00
2013-5-6,61.9,54.4,48.6,-99.9,-99.9,-99.9,0,0,100,0.00,40.00,14,9,0,0.00
2013-5-7,63.5,53.7,44.2,-99.9,-99.9,-99.9,0,0,100,0.00,40.00,10,5,0,0.00
2013-5-8,59.2,51.7,45.3,-99.9,-99.9,-99.9,0,0,100,0.00,40.00,20,11,0,0.00
2013-5-9,52.9,47.0,44.2,-99.9,-99.9,-99.9,0,0,100,0.00,40.00,21,15,0,0.00
2013-5-10,54.7,48.9,43.0,-99.9,-99.9,-99.9,0,0,100,0.00,40.00,18,12,0,0.00
2013-5-11,51.1,46.0,42.1,-99.9,-99.9,-99.9,0,0,100,0.00,40.00,22,11,0,0.00
2013-5-12,55.2,47.6,41.0,-99.9,-99.9,-99.9,0,0,100,0.00,40.00,18,11,0,0.00
2013-5-13,49.8,43.9,40.3,-99.9,-99.9,-99.9,0,0,100,0.00,40.00,19,12,0,0.00
2013-5-14,54.9,45.1,36.7,-99.9,-99.9,-99.9,0,0,100,0.00,40.00,14,9,0,0.00
2013-5-15,50.0,43.6,39.4,-99.9,-99.9,-99.9,0,0,100,0.00,40.00,23,13,0,0.00
2013-5-16,53.2,45.1,36.1,-99.9,-99.9,-99.9,0,0,100,0.00,40.00,9,5,0,0.00
2013-5-17,57.0,47.5,37.8,-99.9,-99.9,-99.9,0,0,100,0.00,40.00,13,7,0,0.00
2013-5-18,50.2,47.3,43.2,-99.9,-99.9,-99.9,0,0,100,0.00,40.00,15,8,0,0.00
2013-5-19,62.8,54.4,47.5,-99.9,-99.9,-99.9,0,0,100,0.00,40.00,8,3,0,0.00
2013-5-20,56.3,52.7,48.4,-99.9,-99.9,-99.9,0,0,100,0.00,40.00,19,10,0,0.00
2013-5-21,60.8,51.1,45.7,-99.9,-99.9,-99.9,0,0,100,0.00,40.00,18,11,0,0.00
2013-5-22,54.0,49.2,43.5,-99.9,-99.9,-99.9,0,0,100,0.00,40.00,19,12,0,0.00
2013-5-23,49.8,44.5,38.8,-99.9,-99.9,-99.9,0,0,100,0.00,40.00,25,14,0,0.00
2013-5-24,55.4,47.2,40.8,-99.9,-99.9,-99.9,0,0,100,0.00,40.00,21,12,0,0.00
2013-5-25,62.8,53.2,41.5,-99.9,-99.9,-99.9,0,0,100,0.00,40.00,9,4,0,0.00
2013-5-26,62.2,54.5,48.7,-99.9,-99.9,-99.9,0,0,100,0.00,40.00,15,8,0,0.00
2013-5-27,57.9,50.2,45.0,-99.9,-99.9,-99.9,0,0,100,0.00,40.00,16,8,0,0.00
2013-5-28,59.0,49.5,40.3,-99.9,-99.9,-99.9,0,0,100,0.00,40.00,10,6,0,0.00
2013-5-29,64.9,55.1,47.1,-99.9,-99.9,-99.9,0,0,100,0.00,40.00,18,12,0,0.00
2013-5-30,64.8,56.5,47.5,-99.9,-99.9,-99.9,0,0,100,0.00,40.00,19,12,0,0.00
2013-5-31,57.0,51.5,44.2,-99.9,-99.9,-99.9,0,0,100,0.00,40.00,14,7,0,0.00
2013-6-1,58.1,50.5,43.3,-99.9,-99.9,-99.9,0,0,100,0.00,40.00,13,6,0,0.00
2013-6-2,63.9,55.4,48.0,-99.9,-99.9,-99.9,0,0,100,0.00,40.00,8,5,0,0.00
2013-6-3,66.7,58.5,52.9,-99.9,-99.9,-99.9,0,0,100,0.00,40.00,6,4,0,0.00
2013-6-4,66.7,58.3,48.4,-99.9,-99.9,-99.9,0,0,100,0.00,40.00,9,5,0,0.00
2013-6-5,63.7,57.3,47.7,-99.9,-99.9,-99.9,0,0,100,0.00,40.00,10,5,0,0.00
2013-6-6,64.9,57.5,48.6,-99.9,-99.9,-99.9,0,0,100,0.00,40.00,11,6,0,0.00
2013-6-7,68.7,59.8,49.8,-99.9,-99.9,-99.9,0,0,100,0.00,40.00,9,5,0,0.00
2013-6-8,67.1,59.4,48.6,-99.9,-99.9,-99.9,0,0,100,0.00,40.00,9,4,0,0.00
2013-6-9,68.4,58.4,49.3,-99.9,-99.9,-99.9,0,0,100,0.00,40.00,9,4,0,0.00
2013-6-10,57.6,55.7,54.0,-99.9,-99.9,-99.9,0,0,100,0.00,40.00,5,3,0,0.00
2013-6-11,64.2,55.7,50.4,-99.9,-99.9,-99.9,0,0,100,0.00,40.00,12,5,0,0.00
2013-6-12,63.0,55.3,50.9,-99.9,-99.9,-99.9,0,0,100,0.00,40.00,11,5,0,0.00
2013-7-3,64.8,63.9,62.6,-99.9,-99.9,-99.9,0,0,100,0.00,40.00,10,8,0,0.00
2013-7-4,62.8,59.5,52.0,-99.9,-99.9,-99.9,0,0,100,0.00,40.00,16,11,0,0.00
2013-7-5,72.0,58.9,48.6,-99.9,-99.9,-99.9,0,0,100,0.00,40.00,10,6,0,0.00
2013-7-6,74.5,62.3,51.6,-99.9,-99.9,-99.9,0,0,100,0.00,40.00,11,6,0,0.00
2013-7-7,74.8,65.1,58.6,-99.9,-99.9,-99.9,0,0,100,0.00,40.00,9,4,0,0.00
2013-7-8,76.1,66.6,57.0,-99.9,-99.9,-99.9,0,0,100,0.00,40.00,7,4,0,0.00
2013-7-9,82.2,70.5,56.8,-99.9,-99.9,-99.9,0,0,100,0.00,40.00,7,4,0,0.00
2013-7-10,73.0,65.6,56.8,-99.9,-99.9,-99.9,0,0,100,0.00,40.00,8,5,0,0.00
2013-7-11,75.4,66.1,56.3,-99.9,-99.9,-99.9,0,0,100,0.00,40.00,7,4,0,0.00
2013-7-12,82.4,69.9,56.1,-99.9,-99.9,-99.9,0,0,100,0.00,40.00,7,4,0,0.00
2013-7-13,74.3,67.0,59.4,-99.9,-99.9,-99.9,0,0,100,0.00,40.00,8,4,0,0.00
2013-7-14,77.2,65.9,56.3,-99.9,-99.9,-99.9,0,0,100,0.00,40.00,9,4,0,0.00
2013-7-15,68.2,61.0,55.6,-99.9,-99.9,-99.9,0,0,100,0.00,40.00,7,4,0,0.00
2013-7-16,71.2,64.6,57.6,-99.9,-99.9,-99.9,0,0,100,0.00,40.00,8,4,0,0.00
2013-7-17,79.2,68.5,60.3,-99.9,-99.9,-99.9,0,0,100,0.00,40.00,7,4,0,0.00
2013-7-18,77.0,68.4,57.9,-99.9,-99.9,-99.9,0,0,100,0.00,40.00,8,4,0,0.00
2013-7-19,78.6,69.1,60.4,-99.9,-99.9,-99.9,0,0,100,0.00,40.00,8,5,0,0.00
2013-7-20,74.1,67.1,60.4,-99.9,-99.9,-99.9,0,0,100,0.00,40.00,9,6,0,0.00
2013-7-21,67.5,62.6,59.2,-99.9,-99.9,-99.9,0,0,100,0.00,40.00,9,5,0,0.00
2013-7-22,73.4,65.9,58.6,-99.9,-99.9,-99.9,0,0,100,0.00,40.00,9,5,0,0.00
2013-7-23,74.8,66.9,61.9,-99.9,-99.9,-99.9,0,0,100,0.00,40.00,13,5,0,0.00
2013-7-24,73.8,66.1,60.1,-99.9,-99.9,-99.9,0,0,100,0.00,40.00,12,5,0,0.00
2013-7-25,71.4,63.1,58.5,-99.9,-99.9,-99.9,0,0,100,0.00,40.00,9,4,0,0.00
2013-7-26,72.3,62.5,55.2,-99.9,-99.9,-99.9,0,0,100,0.00,40.00,8,4,0,0.00
2013-7-27,67.6,61.1,54.0,-99.9,-99.9,-99.9,0,0,100,0.00,40.00,7,3,0,0.00
2013-7-28,73.0,61.6,53.2,-99.9,-99.9,-99.9,0,0,100,0.00,40.00,9,4,0,0.00
2013-7-29,70.0,61.6,56.7,-99.9,-99.9,-99.9,0,0,100,0.00,40.00,13,7,0,0.00
2013-7-30,67.8,59.9,51.3,-99.9,-99.9,-99.9,0,0,100,0.00,40.00,13,8,0,0.00
2013-7-31,66.4,58.7,54.0,-99.9,-99.9,-99.9,0,0,100,0.00,40.00,13,5,0,0.00
2013-8-1,73.6,65.4,61.9,-99.9,-99.9,-99.9,0,0,100,0.00,40.00,13,7,0,0.00
2013-8-2,69.4,62.1,54.9,-99.9,-99.9,-99.9,0,0,100,0.00,40.00,17,10,0,0.00
2013-8-3,66.6,57.5,52.3,-99.9,-99.9,-99.9,0,0,100,0.00,40.00,14,8,0,0.00
2013-8-4,68.9,60.3,52.0,-99.9,-99.9,-99.9,0,0,100,0.00,40.00,8,5,0,0.00
2013-8-5,64.8,58.7,54.3,-99.9,-99.9,-99.9,0,0,100,0.00,40.00,15,8,0,0.00
2013-8-6,66.6,59.6,54.3,-99.9,-99.9,-99.9,0,0,100,0.00,40.00,9,5,0,0.00
2013-8-7,70.9,60.4,51.8,-99.9,-99.9,-99.9,0,0,100,0.00,40.00,7,3,0,0.00
2013-8-8,71.4,62.0,55.9,-99.9,-99.9,-99.9,0,0,100,0.00,40.00,13,6,0,0.00
2013-8-9,62.4,58.0,55.2,-99.9,-99.9,-99.9,0,0,100,0.00,40.00,14,7,0,0.00
2013-8-10,68.7,59.8,53.6,-99.9,-99.9,-99.9,0,0,100,0.00,40.00,10,6,0,0.00
2013-8-11,64.8,57.4,51.6,-99.9,-99.9,-99.9,0,0,100,0.00,40.00,15,8,0,0.00
2013-8-12,61.0,55.5,50.2,-99.9,-99.9,-99.9,0,0,100,0.00,40.00,14,8,0,0.00
2013-8-13,66.0,58.4,52.5,-99.9,-99.9,-99.9,0,0,100,0.00,40.00,10,5,0,0.00
2013-8-14,71.8,62.6,55.0,-99.9,-99.9,-99.9,0,0,100,0.00,40.00,12,5,0,0.00
2013-8-15,69.6,63.3,58.1,-99.9,-99.9,-99.9,0,0,100,0.00,40.00,14,9,0,0.00
2013-8-16,67.3,59.6,51.6,-99.9,-99.9,-99.9,0,0,100,0.00,40.00,12,6,0,0.00
2013-8-17,67.8,60.7,54.3,-99.9,-99.9,-99.9,0,0,100,0.00,40.00,16,10,0,0.00
2013-8-18,62.4,56.5,50.7,-99.9,-99.9,-99.9,0,0,100,0.00,40.00,13,8,0,0.00
2013-8-19,67.3,58.2,50.7,-99.9,-99.9,-99.9,0,0,100,0.00,40.00,13,7,0,0.00
2013-8-20,68.2,60.8,55.0,-99.9,-99.9,-99.9,0,0,100,0.00,40.00,13,8,0,0.00
2013-8-21,67.8,62.9,58.8,-99.9,-99.9,-99.9,0,0,100,0.00,40.00,15,10,0,0.00
2013-8-22,68.4,60.2,55.6,-99.9,-99.9,-99.9,0,0,100,0.00,40.00,7,4,0,0.00
2013-8-23,63.0,58.3,54.5,-99.9,-99.9,-99.9,0,0,100,0.00,40.00,11,5,0,0.00
2013-8-24,61.0,55.4,47.5,-99.9,-99.9,-99.9,0,0,100,0.00,40.00,8,4,0,0.00
2013-8-25,64.4,58.9,54.5,-99.9,-99.9,-99.9,0,0,100,0.00,40.00,11,6,0,0.00
2013-8-26,64.6,57.1,50.2,-99.9,-99.9,-99.9,0,0,100,0.00,40.00,6,4,0,0.00
2013-8-27,66.9,59.7,53.2,-99.9,-99.9,-99.9,0,0,100,0.00,40.00,10,4,0,0.00
2013-8-28,66.0,58.1,51.4,-99.9,-99.9,-99.9,0,0,100,0.00,40.00,9,4,0,0.00
2013-8-29,66.9,61.0,55.8,-99.9,-99.9,-99.9,0,0,100,0.00,40.00,13,8,0,0.00
2013-8-30,66.4,59.0,48.6,-99.9,-99.9,-99.9,0,0,100,0.00,40.00,16,9,0,0.00
2013-8-31,60.4,52.9,45.5,-99.9,-99.9,-99.9,0,0,100,0.00,40.00,17,7,0,0.00
2013-9-1,62.2,54.9,47.3,-99.9,-99.9,-99.9,0,0,100,0.00,40.00,17,10,0,0.00
2013-9-2,68.2,60.4,55.0,-99.9,-99.9,-99.9,0,0,100,0.00,40.00,14,9,0,0.00
2013-9-3,69.6,61.5,54.7,-99.9,-99.9,-99.9,0,0,100,0.00,40.00,11,6,0,0.00
2013-9-4,71.2,59.4,48.4,-99.9,-99.9,-99.9,0,0,100,0.00,40.00,13,7,0,0.00
2013-9-5,61.0,54.3,47.5,-99.9,-99.9,-99.9,0,0,100,0.00,40.00,14,6,0,0.00
2013-9-6,59.2,49.2,40.6,-99.9,-99.9,-99.9,0,0,100,0.00,40.00,15,7,0,0.00
2013-9-7,50.2,47.1,45.3,-99.9,-99.9,-99.9,0,0,100,0.00,40.00,13,9,0,0.00
2013-9-8,58.1,51.4,46.4,-99.9,-99.9,-99.9,0,0,100,0.00,40.00,11,7,0,0.00
2013-9-9,60.8,51.8,43.5,-99.9,-99.9,-99.9,0,0,100,0.00,40.00,13,7,0,0.00
2013-9-10,59.7,53.5,46.9,-99.9,-99.9,-99.9,0,0,100,0.00,40.00,17,9,0,0.00
2013-9-11,61.2,56.2,51.4,-99.9,-99.9,-99.9,0,0,100,0.00,40.00,11,6,0,0.00
2013-9-12,63.5,59.1,51.1,-99.9,-99.9,-99.9,0,0,100,0.00,40.00,13,7,0,0.00
2013-9-13,54.5,50.6,46.8,-99.9,-99.9,-99.9,0,0,100,0.00,40.00,7,4,0,0.00
2013-9-14,60.6,50.5,42.4,-99.9,-99.9,-99.9,0,0,100,0.00,40.00,12,5,0,0.00
2013-9-15,60.4,52.3,45.3,-99.9,-99.9,-99.9,0,0,100,0.00,40.00,19,13,0,0.00
2013-9-16,53.2,47.5,43.3,-99.9,-99.9,-99.9,0,0,100,0.00,40.00,18,11,0,0.00
2013-9-17,49.6,47.9,44.4,-99.9,-99.9,-99.9,0,0,100,0.00,40.00,13,6,0,0.00
2013-9-18,54.9,49.0,45.7,-99.9,-99.9,-99.9,0,0,100,0.00,40.00,13,7,0,0.00
2013-9-19,60.4,53.3,46.0,-99.9,-99.9,-99.9,0,0,100,0.00,40.00,15,10,0,0.00
2013-9-20,61.0,53.4,48.0,-99.9,-99.9,-99.9,0,0,100,0.00,40.00,11,6,0,0.00
2013-9-21,70.9,61.4,53.4,-99.9,-99.9,-99.9,0,0,100,0.00,40.00,13,6,0,0.00
2013-9-22,71.2,61.8,54.3,-99.9,-99.9,-99.9,0,0,100,0.00,40.00,10,6,0,0.00
2013-9-23,70.5,60.8,52.2,-99.9,-99.9,-99.9,0,0,100,0.00,40.00,8,4,0,0.00
2013-9-24,65.5,58.2,55.6,-99.9,-99.9,-99.9,0,0,100,0.00,40.00,8,4,0,0.00
2013-9-25,60.8,56.7,54.7,-99.9,-99.9,-99.9,0,0,100,0.00,40.00,7,4,0,0.00
2013-9-26,57.9,56.2,54.9,-99.9,-99.9,-99.9,0,0,100,0.00,40.00,7,4,0,0.00
2013-9-27,64.0,57.7,52.9,-99.9,-99.9,-99.9,0,0,100,0.00,40.00,8,4,0,0.00
2013-9-28,60.1,55.7,52.3,-99.9,-99.9,-99.9,0,0,100,0.00,40.00,10,6,0,0.00
2013-9-29,60.6,56.4,53.8,-99.9,-99.9,-99.9,0,0,100,0.00,40.00,12,7,0,0.00
2013-9-30,58.5,55.5,52.0,-99.9,-99.9,-99.9,0,0,100,0.00,40.00,8,5,0,0.00
2013-10-1,57.6,56.6,54.5,-99.9,-99.9,-99.9,0,0,100,0.00,40.00,9,5,0,0.00
2013-10-2,65.1,59.4,56.8,-99.9,-99.9,-99.9,0,0,100,0.00,40.00,6,4,0,0.00
2013-10-3,61.2,59.5,57.4,-99.9,-99.9,-99.9,0,0,100,0.00,40.00,5,3,0,0.00
2013-10-4,61.0,56.6,51.8,-99.9,-99.9,-99.9,0,0,100,0.00,40.00,10,5,0,0.00
2013-10-5,64.6,54.9,48.7,-99.9,-99.9,-99.9,0,0,100,0.00,40.00,11,6,0,0.00
2013-10-6,64.9,59.0,52.2,-99.9,-99.9,-99.9,0,0,100,0.00,40.00,13,9,0,0.00
2013-10-7,64.2,61.0,58.3,-99.9,-99.9,-99.9,0,0,100,0.00,40.00,14,9,0,0.00
2013-10-8,59.2,56.0,52.2,-99.9,-99.9,-99.9,0,0,100,0.00,40.00,12,6,0,0.00
2013-10-9,53.1,48.3,41.7,-99.9,-99.9,-99.9,0,0,100,0.00,40.00,18,10,0,0.00
2013-10-10,52.2,44.1,37.8,-99.9,-99.9,-99.9,0,0,100,0.00,40.00,16,9,0,0.00
2013-10-11,53.4,46.6,38.5,-99.9,-99.9,-99.9,0,0,100,0.00,40.00,12,8,0,0.00
2013-10-12,53.1,50.9,48.9,-99.9,-99.9,-99.9,0,0,100,0.00,40.00,10,7,0,0.00
2013-10-13,52.0,49.3,45.5,-99.9,-99.9,-99.9,0,0,100,0.00,40.00,11,7,0,0.00
2013-10-14,53.6,48.8,45.3,-99.9,-99.9,-99.9,0,0,100,0.00,40.00,13,8,0,0.00
2013-10-21,185.0,0.0,185.0,-99.9,-99.9,-99.9,0,0,100,0.00,40.00,11,7,0,0.00
2013-10-22,185.0,0.0,185.0,-99.9,-99.9,-99.9,0,0,100,0.00,40.00,16,6,0,0.00
2013-10-23,185.0,0.0,185.0,-99.9,-99.9,-99.9,0,0,100,0.00,40.00,12,8,0,0.00
2013-10-24,185.0,0.0,185.0,-99.9,-99.9,-99.9,0,0,100,0.00,40.00,9,7,0,0.00
2013-10-25,185.0,0.0,185.0,-99.9,-99.9,-99.9,0,0,100,0.00,40.00,15,8,0,0.00
2013-10-26,185.0,0.0,185.0,-99.9,-99.9,-99.9,0,0,100,0.00,40.00,18,8,0,0.00
2013-10-27,185.0,0.0,185.0,-99.9,-99.9,-99.9,0,0,100,0.00,40.00,20,13,0,0.00
2013-10-28,185.0,0.0,185.0,-99.9,-99.9,-99.9,0,0,100,0.00,40.00,16,11,0,0.00
2013-10-29,185.0,0.0,185.0,-99.9,-99.9,-99.9,0,0,100,0.00,40.00,12,8,0,0.00
2013-10-30,185.0,0.0,185.0,-99.9,-99.9,-99.9,0,0,100,0.00,40.00,22,9,0,0.00
2013-10-31,185.0,0.0,185.0,-99.9,-99.9,-99.9,0,0,100,0.00,40.00,17,10,0,0.00
2013-11-1,185.0,0.0,185.0,-99.9,-99.9,-99.9,0,0,100,0.00,40.00,11,7,0,0.00
2013-11-2,185.0,0.0,185.0,-99.9,-99.9,-99.9,0,0,100,0.00,40.00,24,12,0,0.00
2013-11-3,185.0,0.0,185.0,-99.9,-99.9,-99.9,0,0,100,0.00,40.00,14,8,0,0.00
2013-11-4,185.0,0.0,185.0,-99.9,-99.9,-99.9,0,0,100,0.00,40.00,9,5,0,0.00
2013-11-5,185.0,0.0,185.0,-99.9,-99.9,-99.9,0,0,100,0.00,40.00,16,9,0,0.00
2013-11-6,185.0,0.0,185.0,-99.9,-99.9,-99.9,0,0,100,0.00,40.00,10,7,0,0.00
2013-11-7,185.0,0.0,185.0,-99.9,-99.9,-99.9,0,0,100,0.00,40.00,17,11,0,0.00
2013-11-8,185.0,0.0,185.0,-99.9,-99.9,-99.9,0,0,100,0.00,40.00,12,8,0,0.00
2013-11-9,185.0,0.0,185.0,-99.9,-99.9,-99.9,0,0,100,0.00,40.00,11,7,0,0.00
2013-11-10,185.0,0.0,185.0,-99.9,-99.9,-99.9,0,0,100,0.00,40.00,7,4,0,0.00
2013-11-11,185.0,0.2,52.3,-99.9,-99.9,-99.9,0,0,100,0.00,40.00,14,8,0,0.00
2013-11-12,185.0,14.9,41.4,-99.9,-99.9,-99.9,0,0,100,0.00,40.00,10,6,0,0.00
2013-11-13,185.0,12.3,41.7,-99.9,-99.9,-99.9,0,0,100,0.00,40.00,19,11,0,0.00
2013-11-14,185.0,34.6,40.6,-99.9,-99.9,-99.9,0,0,100,0.00,40.00,20,9,0,0.00
2013-11-15,49.3,31.6,40.8,-99.9,-99.9,-99.9,0,0,100,0.00,40.00,9,6,0,0.00
2013-11-16,185.0,16.9,47.3,-99.9,-99.9,-99.9,0,0,100,0.00,40.00,11,8,0,0.00
2013-11-17,185.0,27.1,45.5,-99.9,-99.9,-99.9,0,0,100,0.00,40.00,11,7,0,0.00
2013-11-18,185.0,12.6,33.8,-99.9,-99.9,-99.9,0,0,100,0.00,40.00,13,7,0,0.00
2013-11-19,40.5,26.0,31.3,-99.9,-99.9,-99.9,0,0,100,0.00,40.00,14,9,0,0.00
2013-11-20,44.2,34.0,37.6,-99.9,-99.9,-99.9,0,0,100,0.00,40.00,26,17,0,0.00
2013-11-21,39.7,37.4,34.9,-99.9,-99.9,-99.9,0,0,100,0.00,40.00,20,12,0,0.00
2013-11-22,40.3,34.6,29.8,-99.9,-99.9,-99.9,0,0,100,0.00,40.00,8,5,0,0.00
2013-11-23,44.4,25.5,27.7,-99.9,-99.9,-99.9,0,0,100,0.00,40.00,10,5,0,0.00
2013-11-24,43.9,17.0,40.1,-99.9,-99.9,-99.9,0,0,100,0.00,40.00,8,5,0,0.00
2013-11-25,43.0,29.8,38.3,-99.9,-99.9,-99.9,0,0,100,0.00,40.00,7,3,0,0.00
2013-11-26,185.0,0.0,185.0,-99.9,-99.9,-99.9,0,0,100,0.00,40.00,7,5,0,0.00
2013-12-15,46.6,46.3,46.0,-99.9,-99.9,-99.9,0,0,100,0.00,40.00,14,11,0,0.00
2013-12-16,46.0,9.4,39.6,-99.9,-99.9,-99.9,0,0,100,0.00,40.00,14,9,0,0.00
2013-12-17,185.0,20.7,41.4,-99.9,-99.9,-99.9,0,0,100,0.00,40.00,20,12,0,0.00
2013-12-18,53.4,37.0,37.9,-99.9,-99.9,-99.9,0,0,100,0.00,40.00,24,15,0,0.00
2013-12-19,37.9,10.0,34.7,-99.9,-99.9,-99.9,0,0,100,0.00,40.00,18,13,0,0.00
2013-12-20,185.0,0.2,44.4,-99.9,-99.9,-99.9,0,0,100,0.00,40.00,27,17,0,0.00
2013-12-21,185.0,1.0,45.3,-99.9,-99.9,-99.9,0,0,100,0.00,40.00,20,13,0,0.00
2013-12-22,185.0,0.0,185.0,-99.9,-99.9,-99.9,0,0,100,0.00,40.00,18,12,0,0.00
2013-12-23,185.0,0.0,185.0,-99.9,-99.9,-99.9,0,0,100,0.00,40.00,26,14,0,0.00
2013-12-24,185.0,0.0,185.0,-99.9,-99.9,-99.9,0,0,100,0.00,40.00,26,18,0,0.00
2013-12-25,185.0,0.0,185.0,-99.9,-99.9,-99.9,0,0,100,0.00,40.00,12,7,0,0.00
2013-12-26,185.0,0.0,185.0,-99.9,-99.9,-99.9,0,0,100,0.00,40.00,28,10,0,0.00
2013-12-27,185.0,0.0,185.0,-99.9,-99.9,-99.9,0,0,100,0.00,40.00,33,20,0,0.00
2013-12-28,185.0,0.0,185.0,-99.9,-99.9,-99.9,0,0,100,0.00,40.00,13,10,0,0.00
2013-12-29,185.0,0.0,185.0,-99.9,-99.9,-99.9,0,0,100,0.00,40.00,24,12,0,0.00
2013-12-30,185.0,0.0,185.0,-99.9,-99.9,-99.9,0,0,100,0.00,40.00,22,10,0,0.00
2013-12-31,185.0,5.6,39.2,-99.9,-99.9,-99.9,0,0,100,0.00,40.00,21,12,0,0.00
2014-1-1,185.0,0.6,39.2,-99.9,-99.9,-99.9,0,0,100,0.00,40.00,16,9,0,0.00
2014-1-2,185.0,0.3,45.1,-99.9,-99.9,-99.9,0,0,100,0.00,40.00,25,12,0,0.00